sensor_id;sensor_type;location;lat;lon;timestamp;pressure;altitude;pressure_sealevel;temperature;humidity
64698;BME280;51124;53.394;-6.294;2023-02-22T00:01:34;100192.11;;;22.34;11.35
64698;BME280;51124;53.394;-6.294;2023-02-22T00:04:03;100187.44;;;22.06;11.39
64698;BME280;51124;53.394;-6.294;2023-02-22T00:06:31;100196.31;;;22.52;11.30
64698;BME280;51124;53.394;-6.294;2023-02-22T00:08:59;100197.16;;;21.72;11.42
64698;BME280;51124;53.394;-6.294;2023-02-22T00:11:27;100200.82;;;21.67;11.58
64698;BME280;51124;53.394;-6.294;2023-02-22T00:13:55;100199.63;;;21.75;11.58
64698;BME280;51124;53.394;-6.294;2023-02-22T00:16:24;100194.08;;;22.26;11.48
64698;BME280;51124;53.394;-6.294;2023-02-22T00:18:53;100197.08;;;22.48;11.48
64698;BME280;51124;53.394;-6.294;2023-02-22T00:21:22;100209.26;;;21.40;11.57
64698;BME280;51124;53.394;-6.294;2023-02-22T00:23:50;100220.61;;;22.19;11.51
64698;BME280;51124;53.394;-6.294;2023-02-22T00:26:19;100235.74;;;21.15;11.63
64698;BME280;51124;53.394;-6.294;2023-02-22T00:28:49;100238.11;;;21.58;11.64
64698;BME280;51124;53.394;-6.294;2023-02-22T00:31:17;100247.10;;;21.37;11.78
64698;BME280;51124;53.394;-6.294;2023-02-22T00:33:45;100247.00;;;21.86;11.78
64698;BME280;51124;53.394;-6.294;2023-02-22T00:36:14;100246.97;;;18.32;11.72
64698;BME280;51124;53.394;-6.294;2023-02-22T00:38:42;100248.23;;;18.40;11.15
64698;BME280;51124;53.394;-6.294;2023-02-22T00:41:10;100252.77;;;19.14;10.54
64698;BME280;51124;53.394;-6.294;2023-02-22T00:43:37;100256.34;;;18.77;10.41
64698;BME280;51124;53.394;-6.294;2023-02-22T00:46:05;100257.62;;;17.62;10.32
64698;BME280;51124;53.394;-6.294;2023-02-22T00:48:32;100257.71;;;18.26;9.94
64698;BME280;51124;53.394;-6.294;2023-02-22T00:50:59;100257.90;;;19.03;9.85
64698;BME280;51124;53.394;-6.294;2023-02-22T00:53:27;100266.45;;;19.74;9.62
64698;BME280;51124;53.394;-6.294;2023-02-22T00:55:55;100267.70;;;18.97;9.43
64698;BME280;51124;53.394;-6.294;2023-02-22T00:58:22;100273.65;;;19.05;9.60
64698;BME280;51124;53.394;-6.294;2023-02-22T01:00:49;100280.55;;;18.88;9.45
64698;BME280;51124;53.394;-6.294;2023-02-22T01:03:19;100287.92;;;19.37;9.39
64698;BME280;51124;53.394;-6.294;2023-02-22T01:05:46;100291.13;;;18.87;9.29
64698;BME280;51124;53.394;-6.294;2023-02-22T01:08:15;100284.98;;;19.28;9.29
64698;BME280;51124;53.394;-6.294;2023-02-22T01:10:43;100284.61;;;19.07;9.21
64698;BME280;51124;53.394;-6.294;2023-02-22T01:13:11;100293.73;;;17.83;9.36
64698;BME280;51124;53.394;-6.294;2023-02-22T01:15:40;100296.72;;;19.29;9.29
64698;BME280;51124;53.394;-6.294;2023-02-22T01:18:08;100303.16;;;19.31;9.10
64698;BME280;51124;53.394;-6.294;2023-02-22T01:20:36;100301.76;;;19.52;8.98
64698;BME280;51124;53.394;-6.294;2023-02-22T01:23:04;100312.20;;;18.59;9.17
64698;BME280;51124;53.394;-6.294;2023-02-22T01:25:33;100310.60;;;18.21;9.29
64698;BME280;51124;53.394;-6.294;2023-02-22T01:28:02;100308.83;;;18.95;8.95
64698;BME280;51124;53.394;-6.294;2023-02-22T01:30:31;100312.48;;;18.44;9.19
64698;BME280;51124;53.394;-6.294;2023-02-22T01:32:59;100309.08;;;18.97;8.92
64698;BME280;51124;53.394;-6.294;2023-02-22T01:35:29;100324.43;;;18.64;9.04
64698;BME280;51124;53.394;-6.294;2023-02-22T01:37:58;100323.20;;;18.70;9.08
64698;BME280;51124;53.394;-6.294;2023-02-22T01:40:28;100323.38;;;18.35;9.14
64698;BME280;51124;53.394;-6.294;2023-02-22T01:43:00;100327.11;;;18.29;9.26
64698;BME280;51124;53.394;-6.294;2023-02-22T01:45:43;100331.07;;;19.01;9.12
64698;BME280;51124;53.394;-6.294;2023-02-22T01:48:03;100332.20;;;18.71;9.18
64698;BME280;51124;53.394;-6.294;2023-02-22T01:50:35;100331.90;;;19.05;9.15
64698;BME280;51124;53.394;-6.294;2023-02-22T01:53:04;100325.95;;;18.61;9.12
64698;BME280;51124;53.394;-6.294;2023-02-22T01:55:33;100332.79;;;17.49;9.31
64698;BME280;51124;53.394;-6.294;2023-02-22T01:58:01;100337.90;;;18.63;9.18
64698;BME280;51124;53.394;-6.294;2023-02-22T02:00:29;100339.39;;;18.90;9.18
64698;BME280;51124;53.394;-6.294;2023-02-22T02:03:00;100337.28;;;18.11;9.37
64698;BME280;51124;53.394;-6.294;2023-02-22T02:05:29;100332.66;;;18.12;9.28
64698;BME280;51124;53.394;-6.294;2023-02-22T02:07:58;100337.38;;;19.06;9.03
64698;BME280;51124;53.394;-6.294;2023-02-22T02:10:27;100332.44;;;17.45;9.27
64698;BME280;51124;53.394;-6.294;2023-02-22T02:12:55;100336.82;;;19.66;9.04
64698;BME280;51124;53.394;-6.294;2023-02-22T02:15:26;100336.06;;;18.46;9.20
64698;BME280;51124;53.394;-6.294;2023-02-22T02:17:56;100341.50;;;17.98;9.21
64698;BME280;51124;53.394;-6.294;2023-02-22T02:20:31;100346.89;;;17.65;9.12
64698;BME280;51124;53.394;-6.294;2023-02-22T02:22:56;100348.40;;;18.00;9.07
64698;BME280;51124;53.394;-6.294;2023-02-22T02:25:44;100345.90;;;17.52;9.33
64698;BME280;51124;53.394;-6.294;2023-02-22T02:28:24;100340.46;;;20.05;8.90
64698;BME280;51124;53.394;-6.294;2023-02-22T02:30:42;100344.56;;;20.85;9.63
64698;BME280;51124;53.394;-6.294;2023-02-22T02:32:56;100355.23;;;19.06;9.98
64698;BME280;51124;53.394;-6.294;2023-02-22T02:35:34;100355.06;;;19.08;9.82
64698;BME280;51124;53.394;-6.294;2023-02-22T02:38:00;100357.43;;;21.73;10.20
64698;BME280;51124;53.394;-6.294;2023-02-22T02:40:23;100364.22;;;21.78;10.62
64698;BME280;51124;53.394;-6.294;2023-02-22T02:43:00;100366.98;;;21.14;10.91
64698;BME280;51124;53.394;-6.294;2023-02-22T02:45:26;100366.28;;;20.81;11.18
64698;BME280;51124;53.394;-6.294;2023-02-22T02:47:49;100370.70;;;20.86;11.34
64698;BME280;51124;53.394;-6.294;2023-02-22T02:50:23;100371.24;;;20.63;11.53
64698;BME280;51124;53.394;-6.294;2023-02-22T02:52:55;100372.13;;;21.35;11.38
64698;BME280;51124;53.394;-6.294;2023-02-22T02:55:24;100376.20;;;20.68;11.39
64698;BME280;51124;53.394;-6.294;2023-02-22T02:57:52;100376.79;;;20.86;11.60
64698;BME280;51124;53.394;-6.294;2023-02-22T03:00:25;100376.69;;;20.18;11.66
64698;BME280;51124;53.394;-6.294;2023-02-22T03:03:05;100378.03;;;20.51;11.74
64698;BME280;51124;53.394;-6.294;2023-02-22T03:05:40;100379.55;;;20.12;11.78
64698;BME280;51124;53.394;-6.294;2023-02-22T03:07:54;100382.57;;;20.91;11.71
64698;BME280;51124;53.394;-6.294;2023-02-22T03:10:25;100377.00;;;20.11;11.76
64698;BME280;51124;53.394;-6.294;2023-02-22T03:12:47;100383.59;;;20.06;11.81
64698;BME280;51124;53.394;-6.294;2023-02-22T03:15:28;100387.86;;;20.26;11.93
64698;BME280;51124;53.394;-6.294;2023-02-22T03:17:53;100383.68;;;20.08;11.78
64698;BME280;51124;53.394;-6.294;2023-02-22T03:20:27;100385.16;;;20.79;11.66
64698;BME280;51124;53.394;-6.294;2023-02-22T03:23:00;100387.35;;;19.74;11.76
64698;BME280;51124;53.394;-6.294;2023-02-22T03:25:35;100382.95;;;20.34;11.85
64698;BME280;51124;53.394;-6.294;2023-02-22T03:28:07;100383.24;;;18.73;11.66
64698;BME280;51124;53.394;-6.294;2023-02-22T03:30:39;100384.17;;;18.00;11.12
64698;BME280;51124;53.394;-6.294;2023-02-22T03:33:12;100383.21;;;17.80;10.76
64698;BME280;51124;53.394;-6.294;2023-02-22T03:35:45;100377.74;;;18.88;10.41
64698;BME280;51124;53.394;-6.294;2023-02-22T03:38:16;100382.60;;;17.84;10.38
64698;BME280;51124;53.394;-6.294;2023-02-22T03:40:47;100385.03;;;18.27;10.11
64698;BME280;51124;53.394;-6.294;2023-02-22T03:43:18;100381.08;;;18.00;9.85
64698;BME280;51124;53.394;-6.294;2023-02-22T03:45:49;100387.04;;;18.81;9.61
64698;BME280;51124;53.394;-6.294;2023-02-22T03:48:21;100387.86;;;18.01;9.72
64698;BME280;51124;53.394;-6.294;2023-02-22T03:50:51;100389.80;;;19.09;9.62
64698;BME280;51124;53.394;-6.294;2023-02-22T03:53:20;100393.38;;;18.16;9.34
64698;BME280;51124;53.394;-6.294;2023-02-22T03:55:49;100393.96;;;18.43;9.47
64698;BME280;51124;53.394;-6.294;2023-02-22T03:58:20;100402.59;;;18.03;9.36
64698;BME280;51124;53.394;-6.294;2023-02-22T04:00:48;100400.18;;;18.18;9.31
64698;BME280;51124;53.394;-6.294;2023-02-22T04:03:16;100398.48;;;18.48;9.20
64698;BME280;51124;53.394;-6.294;2023-02-22T04:05:43;100396.51;;;18.50;9.01
64698;BME280;51124;53.394;-6.294;2023-02-22T04:08:10;100406.70;;;17.88;9.28
64698;BME280;51124;53.394;-6.294;2023-02-22T04:10:37;100398.74;;;18.39;9.09
64698;BME280;51124;53.394;-6.294;2023-02-22T04:13:05;100405.57;;;17.81;8.99
64698;BME280;51124;53.394;-6.294;2023-02-22T04:15:32;100404.24;;;17.61;9.06
64698;BME280;51124;53.394;-6.294;2023-02-22T04:18:00;100411.97;;;17.76;8.98
64698;BME280;51124;53.394;-6.294;2023-02-22T04:20:27;100410.11;;;18.25;8.99
64698;BME280;51124;53.394;-6.294;2023-02-22T04:22:55;100411.62;;;17.90;9.04
64698;BME280;51124;53.394;-6.294;2023-02-22T04:25:23;100413.38;;;18.36;9.12
64698;BME280;51124;53.394;-6.294;2023-02-22T04:27:50;100413.08;;;18.55;8.94
64698;BME280;51124;53.394;-6.294;2023-02-22T04:30:19;100418.35;;;18.31;8.89
64698;BME280;51124;53.394;-6.294;2023-02-22T04:32:47;100417.51;;;18.52;8.79
64698;BME280;51124;53.394;-6.294;2023-02-22T04:35:14;100420.16;;;18.54;8.96
64698;BME280;51124;53.394;-6.294;2023-02-22T04:37:41;100419.10;;;18.01;8.95
64698;BME280;51124;53.394;-6.294;2023-02-22T04:40:09;100419.27;;;18.18;8.98
64698;BME280;51124;53.394;-6.294;2023-02-22T04:42:37;100425.24;;;18.47;8.94
64698;BME280;51124;53.394;-6.294;2023-02-22T04:45:06;100430.22;;;18.14;8.73
64698;BME280;51124;53.394;-6.294;2023-02-22T04:47:34;100430.87;;;18.44;8.85
64698;BME280;51124;53.394;-6.294;2023-02-22T04:50:02;100437.08;;;17.83;8.92
64698;BME280;51124;53.394;-6.294;2023-02-22T04:52:29;100439.66;;;18.80;8.81
64698;BME280;51124;53.394;-6.294;2023-02-22T04:54:56;100445.80;;;18.28;8.87
64698;BME280;51124;53.394;-6.294;2023-02-22T04:57:24;100452.00;;;18.69;8.95
64698;BME280;51124;53.394;-6.294;2023-02-22T04:59:52;100452.01;;;19.12;8.88
64698;BME280;51124;53.394;-6.294;2023-02-22T05:02:19;100453.55;;;18.45;8.89
64698;BME280;51124;53.394;-6.294;2023-02-22T05:04:47;100458.03;;;18.79;9.07
64698;BME280;51124;53.394;-6.294;2023-02-22T05:07:15;100460.36;;;17.94;8.88
64698;BME280;51124;53.394;-6.294;2023-02-22T05:09:42;100462.99;;;17.85;9.10
64698;BME280;51124;53.394;-6.294;2023-02-22T05:12:10;100461.66;;;18.36;8.89
64698;BME280;51124;53.394;-6.294;2023-02-22T05:14:37;100465.64;;;17.19;8.95
64698;BME280;51124;53.394;-6.294;2023-02-22T05:17:04;100470.42;;;17.49;8.94
64698;BME280;51124;53.394;-6.294;2023-02-22T05:19:32;100472.64;;;17.72;8.87
64698;BME280;51124;53.394;-6.294;2023-02-22T05:21:59;100475.94;;;20.82;9.08
64698;BME280;51124;53.394;-6.294;2023-02-22T05:24:27;100483.19;;;20.03;9.60
64698;BME280;51124;53.394;-6.294;2023-02-22T05:26:54;100487.20;;;18.61;9.79
64698;BME280;51124;53.394;-6.294;2023-02-22T05:29:22;100494.24;;;20.94;9.78
64698;BME280;51124;53.394;-6.294;2023-02-22T05:31:50;100494.90;;;21.29;10.41
64698;BME280;51124;53.394;-6.294;2023-02-22T05:34:17;100499.75;;;20.22;10.72
64698;BME280;51124;53.394;-6.294;2023-02-22T05:36:45;100505.99;;;20.06;10.97
64698;BME280;51124;53.394;-6.294;2023-02-22T05:39:13;100512.99;;;20.18;11.24
64698;BME280;51124;53.394;-6.294;2023-02-22T05:41:41;100512.12;;;19.93;11.28
64698;BME280;51124;53.394;-6.294;2023-02-22T05:44:09;100518.27;;;20.26;11.22
64698;BME280;51124;53.394;-6.294;2023-02-22T05:46:36;100523.85;;;19.67;11.50
64698;BME280;51124;53.394;-6.294;2023-02-22T05:49:04;100524.36;;;20.25;11.22
64698;BME280;51124;53.394;-6.294;2023-02-22T05:51:32;100536.25;;;20.44;11.37
64698;BME280;51124;53.394;-6.294;2023-02-22T05:54:00;100531.50;;;20.14;11.33
64698;BME280;51124;53.394;-6.294;2023-02-22T05:56:29;100533.19;;;20.48;11.51
64698;BME280;51124;53.394;-6.294;2023-02-22T05:58:57;100531.06;;;19.36;11.69
64698;BME280;51124;53.394;-6.294;2023-02-22T06:01:25;100540.89;;;20.70;11.40
64698;BME280;51124;53.394;-6.294;2023-02-22T06:03:53;100540.00;;;19.82;11.61
64698;BME280;51124;53.394;-6.294;2023-02-22T06:06:21;100542.46;;;20.36;11.50
64698;BME280;51124;53.394;-6.294;2023-02-22T06:08:49;100537.06;;;20.05;11.49
64698;BME280;51124;53.394;-6.294;2023-02-22T06:11:17;100540.95;;;19.56;11.70
64698;BME280;51124;53.394;-6.294;2023-02-22T06:13:50;100542.53;;;20.10;11.64
64698;BME280;51124;53.394;-6.294;2023-02-22T06:16:18;100550.19;;;19.69;11.61
64698;BME280;51124;53.394;-6.294;2023-02-22T06:18:46;100542.72;;;19.76;11.63
64698;BME280;51124;53.394;-6.294;2023-02-22T06:21:13;100546.55;;;17.35;11.39
64698;BME280;51124;53.394;-6.294;2023-02-22T06:23:41;100549.20;;;17.86;10.98
64698;BME280;51124;53.394;-6.294;2023-02-22T06:26:08;100549.93;;;17.31;10.73
64698;BME280;51124;53.394;-6.294;2023-02-22T06:28:35;100552.51;;;18.06;10.43
64698;BME280;51124;53.394;-6.294;2023-02-22T06:31:03;100557.83;;;16.91;10.28
64698;BME280;51124;53.394;-6.294;2023-02-22T06:33:30;100559.48;;;16.70;10.00
64698;BME280;51124;53.394;-6.294;2023-02-22T06:35:57;100562.75;;;17.38;9.56
64698;BME280;51124;53.394;-6.294;2023-02-22T06:38:26;100571.97;;;18.19;9.60
64698;BME280;51124;53.394;-6.294;2023-02-22T06:40:53;100573.70;;;18.45;9.28
64698;BME280;51124;53.394;-6.294;2023-02-22T06:43:21;100578.76;;;17.51;9.43
64698;BME280;51124;53.394;-6.294;2023-02-22T06:45:48;100576.26;;;17.84;9.51
64698;BME280;51124;53.394;-6.294;2023-02-22T06:48:15;100581.85;;;17.91;9.30
64698;BME280;51124;53.394;-6.294;2023-02-22T06:50:43;100579.43;;;17.42;9.24
64698;BME280;51124;53.394;-6.294;2023-02-22T06:53:10;100580.65;;;17.67;9.14
64698;BME280;51124;53.394;-6.294;2023-02-22T06:55:37;100582.44;;;16.89;9.15
64698;BME280;51124;53.394;-6.294;2023-02-22T06:58:05;100584.11;;;16.84;9.15
64698;BME280;51124;53.394;-6.294;2023-02-22T07:00:33;100586.53;;;18.20;9.15
64698;BME280;51124;53.394;-6.294;2023-02-22T07:03:00;100593.01;;;16.88;9.08
64698;BME280;51124;53.394;-6.294;2023-02-22T07:05:29;100598.58;;;17.46;9.08
64698;BME280;51124;53.394;-6.294;2023-02-22T07:08:03;100603.93;;;17.04;9.08
64698;BME280;51124;53.394;-6.294;2023-02-22T07:10:32;100600.84;;;17.56;9.05
64698;BME280;51124;53.394;-6.294;2023-02-22T07:12:59;100603.43;;;17.27;9.01
64698;BME280;51124;53.394;-6.294;2023-02-22T07:15:28;100595.90;;;17.16;8.99
64698;BME280;51124;53.394;-6.294;2023-02-22T07:17:56;100598.57;;;17.44;8.94
64698;BME280;51124;53.394;-6.294;2023-02-22T07:20:25;100598.46;;;17.44;9.04
64698;BME280;51124;53.394;-6.294;2023-02-22T07:22:53;100595.85;;;17.42;8.96
64698;BME280;51124;53.394;-6.294;2023-02-22T07:25:21;100605.24;;;17.43;9.00
64698;BME280;51124;53.394;-6.294;2023-02-22T07:27:49;100598.89;;;17.81;8.89
64698;BME280;51124;53.394;-6.294;2023-02-22T07:30:19;100603.04;;;17.51;9.13
64698;BME280;51124;53.394;-6.294;2023-02-22T07:32:47;100607.69;;;16.73;9.13
64698;BME280;51124;53.394;-6.294;2023-02-22T07:35:16;100619.60;;;17.00;9.13
64698;BME280;51124;53.394;-6.294;2023-02-22T07:37:43;100617.63;;;17.75;8.97
64698;BME280;51124;53.394;-6.294;2023-02-22T07:40:11;100621.31;;;18.97;8.74
64698;BME280;51124;53.394;-6.294;2023-02-22T07:42:52;100626.50;;;18.24;9.00
64698;BME280;51124;53.394;-6.294;2023-02-22T07:45:09;100624.98;;;19.17;8.88
64698;BME280;51124;53.394;-6.294;2023-02-22T07:47:36;100624.79;;;18.93;9.01
64698;BME280;51124;53.394;-6.294;2023-02-22T07:50:04;100621.57;;;17.96;9.00
64698;BME280;51124;53.394;-6.294;2023-02-22T07:52:31;100622.28;;;18.93;8.95
64698;BME280;51124;53.394;-6.294;2023-02-22T07:54:58;100618.72;;;19.26;8.76
64698;BME280;51124;53.394;-6.294;2023-02-22T07:57:26;100628.03;;;19.25;8.75
64698;BME280;51124;53.394;-6.294;2023-02-22T07:59:53;100623.54;;;18.98;8.99
64698;BME280;51124;53.394;-6.294;2023-02-22T08:02:20;100626.19;;;17.62;9.41
64698;BME280;51124;53.394;-6.294;2023-02-22T08:04:48;100631.32;;;17.76;9.25
64698;BME280;51124;53.394;-6.294;2023-02-22T08:07:15;100632.30;;;18.29;9.10
64698;BME280;51124;53.394;-6.294;2023-02-22T08:09:43;100631.31;;;19.02;9.08
64698;BME280;51124;53.394;-6.294;2023-02-22T08:12:12;100628.64;;;19.38;9.08
64698;BME280;51124;53.394;-6.294;2023-02-22T08:14:39;100639.72;;;18.55;9.34
64698;BME280;51124;53.394;-6.294;2023-02-22T08:17:07;100646.69;;;21.47;9.53
64698;BME280;51124;53.394;-6.294;2023-02-22T08:19:34;100655.58;;;20.95;10.17
64698;BME280;51124;53.394;-6.294;2023-02-22T08:22:02;100657.67;;;18.87;10.54
64698;BME280;51124;53.394;-6.294;2023-02-22T08:24:29;100670.31;;;20.28;10.56
64698;BME280;51124;53.394;-6.294;2023-02-22T08:26:57;100671.63;;;23.55;10.31
64698;BME280;51124;53.394;-6.294;2023-02-22T08:29:25;100669.77;;;22.20;10.79
64698;BME280;51124;53.394;-6.294;2023-02-22T08:31:53;100673.10;;;21.94;10.86
64698;BME280;51124;53.394;-6.294;2023-02-22T08:34:21;100677.45;;;21.62;11.12
64698;BME280;51124;53.394;-6.294;2023-02-22T08:36:49;100676.60;;;21.57;11.41
64698;BME280;51124;53.394;-6.294;2023-02-22T08:39:16;100673.78;;;21.89;11.20
64698;BME280;51124;53.394;-6.294;2023-02-22T08:41:44;100671.85;;;22.19;11.31
64698;BME280;51124;53.394;-6.294;2023-02-22T08:44:12;100675.22;;;21.15;11.65
64698;BME280;51124;53.394;-6.294;2023-02-22T08:46:40;100673.31;;;21.58;11.52
64698;BME280;51124;53.394;-6.294;2023-02-22T08:49:08;100676.36;;;21.04;11.56
64698;BME280;51124;53.394;-6.294;2023-02-22T08:51:36;100675.21;;;21.83;11.53
64698;BME280;51124;53.394;-6.294;2023-02-22T08:54:04;100683.81;;;21.79;11.57
64698;BME280;51124;53.394;-6.294;2023-02-22T08:56:32;100684.14;;;21.76;11.74
64698;BME280;51124;53.394;-6.294;2023-02-22T08:59:00;100683.47;;;22.16;11.32
64698;BME280;51124;53.394;-6.294;2023-02-22T09:01:27;100682.25;;;22.36;11.55
64698;BME280;51124;53.394;-6.294;2023-02-22T09:03:56;100681.02;;;20.81;11.81
64698;BME280;51124;53.394;-6.294;2023-02-22T09:06:23;100674.91;;;21.48;11.62
64698;BME280;51124;53.394;-6.294;2023-02-22T09:08:51;100677.57;;;21.60;11.47
64698;BME280;51124;53.394;-6.294;2023-02-22T09:11:19;100684.10;;;22.12;11.40
64698;BME280;51124;53.394;-6.294;2023-02-22T09:13:47;100689.28;;;21.11;11.58
64698;BME280;51124;53.394;-6.294;2023-02-22T09:16:15;100693.89;;;19.90;11.47
64698;BME280;51124;53.394;-6.294;2023-02-22T09:18:42;100695.43;;;19.47;10.97
64698;BME280;51124;53.394;-6.294;2023-02-22T09:21:10;100695.77;;;19.61;10.49
64698;BME280;51124;53.394;-6.294;2023-02-22T09:23:38;100700.60;;;20.47;10.13
64698;BME280;51124;53.394;-6.294;2023-02-22T09:26:06;100704.13;;;19.85;10.07
64698;BME280;51124;53.394;-6.294;2023-02-22T09:28:34;100704.96;;;19.79;9.97
64698;BME280;51124;53.394;-6.294;2023-02-22T09:31:01;100705.49;;;19.63;9.66
64698;BME280;51124;53.394;-6.294;2023-02-22T09:33:28;100706.25;;;20.55;9.51
64698;BME280;51124;53.394;-6.294;2023-02-22T09:35:56;100708.56;;;19.99;9.63
64698;BME280;51124;53.394;-6.294;2023-02-22T09:38:24;100709.15;;;20.29;9.41
64698;BME280;51124;53.394;-6.294;2023-02-22T09:40:53;100716.63;;;20.14;9.30
64698;BME280;51124;53.394;-6.294;2023-02-22T09:43:31;100715.12;;;19.35;9.31
64698;BME280;51124;53.394;-6.294;2023-02-22T09:46:09;100715.15;;;19.63;9.35
64698;BME280;51124;53.394;-6.294;2023-02-22T09:48:17;100718.47;;;19.23;9.34
64698;BME280;51124;53.394;-6.294;2023-02-22T09:50:46;100720.47;;;19.19;9.28
64698;BME280;51124;53.394;-6.294;2023-02-22T09:53:22;100729.97;;;19.24;9.16
64698;BME280;51124;53.394;-6.294;2023-02-22T09:55:52;100722.29;;;19.46;9.23
64698;BME280;51124;53.394;-6.294;2023-02-22T09:58:24;100728.87;;;20.20;8.99
64698;BME280;51124;53.394;-6.294;2023-02-22T10:00:57;100724.62;;;19.61;9.34
64698;BME280;51124;53.394;-6.294;2023-02-22T10:03:30;100734.14;;;20.09;9.35
64698;BME280;51124;53.394;-6.294;2023-02-22T10:06:03;100734.63;;;20.12;9.19
64698;BME280;51124;53.394;-6.294;2023-02-22T10:08:35;100732.39;;;19.97;9.15
64698;BME280;51124;53.394;-6.294;2023-02-22T10:11:12;100742.32;;;23.99;9.68
64698;BME280;51124;53.394;-6.294;2023-02-22T10:13:41;100745.18;;;22.21;10.66
64698;BME280;51124;53.394;-6.294;2023-02-22T10:16:05;100754.19;;;18.17;10.70
64698;BME280;51124;53.394;-6.294;2023-02-22T10:18:55;100751.92;;;18.53;9.97
64698;BME280;51124;53.394;-6.294;2023-02-22T10:21:10;100755.71;;;19.34;9.48
64698;BME280;51124;53.394;-6.294;2023-02-22T10:23:37;100757.64;;;19.80;9.15
64698;BME280;51124;53.394;-6.294;2023-02-22T10:26:04;100759.84;;;20.10;9.12
64698;BME280;51124;53.394;-6.294;2023-02-22T10:28:31;100752.03;;;20.97;8.69
64698;BME280;51124;53.394;-6.294;2023-02-22T10:31:06;100759.16;;;20.07;8.81
64698;BME280;51124;53.394;-6.294;2023-02-22T10:33:38;100761.56;;;20.46;8.17
64698;BME280;51124;53.394;-6.294;2023-02-22T10:36:17;100771.81;;;20.19;8.17
64698;BME280;51124;53.394;-6.294;2023-02-22T10:38:35;100770.64;;;20.96;7.71
64698;BME280;51124;53.394;-6.294;2023-02-22T10:41:14;100770.38;;;20.18;7.69
64698;BME280;51124;53.394;-6.294;2023-02-22T10:43:35;100768.46;;;20.50;7.66
64698;BME280;51124;53.394;-6.294;2023-02-22T10:46:04;100770.11;;;19.94;7.71
64698;BME280;51124;53.394;-6.294;2023-02-22T10:48:35;100775.17;;;21.03;7.66
64698;BME280;51124;53.394;-6.294;2023-02-22T10:51:06;100774.52;;;19.65;7.73
64698;BME280;51124;53.394;-6.294;2023-02-22T10:53:36;100783.63;;;20.84;7.70
64698;BME280;51124;53.394;-6.294;2023-02-22T10:56:08;100785.36;;;20.91;7.74
64698;BME280;51124;53.394;-6.294;2023-02-22T10:58:48;100777.98;;;19.65;7.74
64698;BME280;51124;53.394;-6.294;2023-02-22T11:01:20;100778.97;;;21.17;7.64
64698;BME280;51124;53.394;-6.294;2023-02-22T11:03:37;100774.70;;;19.73;7.88
64698;BME280;51124;53.394;-6.294;2023-02-22T11:06:19;100781.54;;;20.42;7.72
64698;BME280;51124;53.394;-6.294;2023-02-22T11:08:36;100782.80;;;19.16;7.82
64698;BME280;51124;53.394;-6.294;2023-02-22T11:11:19;100784.45;;;19.49;7.63
64698;BME280;51124;53.394;-6.294;2023-02-22T11:13:39;100787.56;;;19.33;7.77
64698;BME280;51124;53.394;-6.294;2023-02-22T11:16:19;100790.51;;;18.65;8.01
64698;BME280;51124;53.394;-6.294;2023-02-22T11:18:37;100789.61;;;22.33;8.00
64698;BME280;51124;53.394;-6.294;2023-02-22T11:21:07;100794.78;;;21.74;8.61
64698;BME280;51124;53.394;-6.294;2023-02-22T11:23:36;100794.38;;;19.98;8.96
64698;BME280;51124;53.394;-6.294;2023-02-22T11:26:07;100794.10;;;19.87;8.83
64698;BME280;51124;53.394;-6.294;2023-02-22T11:28:36;100796.47;;;22.52;8.91
64698;BME280;51124;53.394;-6.294;2023-02-22T11:31:13;100796.50;;;22.49;9.20
64698;BME280;51124;53.394;-6.294;2023-02-22T11:33:49;100802.41;;;22.51;9.54
64698;BME280;51124;53.394;-6.294;2023-02-22T11:36:07;100807.27;;;21.50;9.75
64698;BME280;51124;53.394;-6.294;2023-02-22T11:38:36;100811.89;;;21.16;9.96
64698;BME280;51124;53.394;-6.294;2023-02-22T11:41:12;100815.79;;;22.32;9.91
64698;BME280;51124;53.394;-6.294;2023-02-22T11:43:30;100815.20;;;21.90;9.99
64698;BME280;51124;53.394;-6.294;2023-02-22T11:46:01;100815.94;;;21.48;9.94
64698;BME280;51124;53.394;-6.294;2023-02-22T11:48:32;100823.74;;;21.32;10.15
64698;BME280;51124;53.394;-6.294;2023-02-22T11:51:20;100818.71;;;21.09;10.15
64698;BME280;51124;53.394;-6.294;2023-02-22T11:53:42;100825.32;;;21.52;10.13
64698;BME280;51124;53.394;-6.294;2023-02-22T11:56:20;100827.23;;;20.95;10.22
64698;BME280;51124;53.394;-6.294;2023-02-22T11:58:35;100835.12;;;21.19;10.18
64698;BME280;51124;53.394;-6.294;2023-02-22T12:01:03;100835.75;;;20.99;10.42
64698;BME280;51124;53.394;-6.294;2023-02-22T12:04:19;100835.67;;;22.48;9.85
64698;BME280;51124;53.394;-6.294;2023-02-22T12:06:09;100838.56;;;21.72;9.85
64698;BME280;51124;53.394;-6.294;2023-02-22T12:08:36;100840.46;;;21.74;9.85
64698;BME280;51124;53.394;-6.294;2023-02-22T12:11:06;100841.66;;;22.52;9.75
64698;BME280;51124;53.394;-6.294;2023-02-22T12:13:36;100843.65;;;21.30;9.69
64698;BME280;51124;53.394;-6.294;2023-02-22T12:16:04;100840.65;;;19.84;9.37
64698;BME280;51124;53.394;-6.294;2023-02-22T12:18:30;100843.24;;;19.98;8.95
64698;BME280;51124;53.394;-6.294;2023-02-22T12:20:55;100845.84;;;20.56;8.71
64698;BME280;51124;53.394;-6.294;2023-02-22T12:23:28;100845.92;;;20.21;8.58
64698;BME280;51124;53.394;-6.294;2023-02-22T12:26:00;100847.50;;;19.50;8.52
64698;BME280;51124;53.394;-6.294;2023-02-22T12:28:33;100845.19;;;20.26;8.10
64698;BME280;51124;53.394;-6.294;2023-02-22T12:31:14;100841.95;;;19.86;8.10
64698;BME280;51124;53.394;-6.294;2023-02-22T12:33:47;100835.14;;;20.33;7.90
64698;BME280;51124;53.394;-6.294;2023-02-22T12:36:07;100845.26;;;19.43;7.93
64698;BME280;51124;53.394;-6.294;2023-02-22T12:38:43;100851.65;;;19.78;7.77
64698;BME280;51124;53.394;-6.294;2023-02-22T12:41:21;100852.35;;;19.95;7.82
64698;BME280;51124;53.394;-6.294;2023-02-22T12:43:45;100852.94;;;19.82;7.70
64698;BME280;51124;53.394;-6.294;2023-02-22T12:46:17;100857.23;;;18.89;7.69
64698;BME280;51124;53.394;-6.294;2023-02-22T12:48:51;100857.35;;;20.39;7.53
64698;BME280;51124;53.394;-6.294;2023-02-22T12:51:33;100860.20;;;19.95;7.62
64698;BME280;51124;53.394;-6.294;2023-02-22T12:54:13;100858.37;;;19.81;7.46